• Join FlightAware (Why Join?)
  • Login
  • US Flag 
10:17AM EST


 

Airport Tracker/Info


-or-


 

Live Flight TrackerFlight Track Log ✈ N682RW ✈ 27-Jun-2013 ✈ KDTW - KPIE

Flight Track Log - Related Links

Times and Time Zones

All times are in EDT time to prevent confusion due to time zone crossing. See the N682RW flight status page for this flight to view local times or setup timezone preferences in your user account.

Time Position Orientation Groundspeed Altitude Reporting Facility
EDT Latitude Longitude Course Direction KTS MPH feet Rate Location/Type
07:17PM 42.2356 -83.3317 50° Northeast 187 215 1,400  Level Cleveland Center
07:18PM 42.2767 -83.2661 50° Northeast 233 268 3,600 2,160 Climbing Cleveland Center
07:19PM 42.3161 -83.1861 56° Northeast 267 307 6,000 2,520 Climbing Cleveland Center
07:20PM 42.2764 -83.1003 122° Southeast 301 346 8,800 1,920 Climbing Cleveland Center
07:21PM 42.2014 -83.0975 178° South 306 352 10,000 1,440 Climbing Cleveland Center
07:22PM 42.1311 -83.1592 213° Southwest 292 336 11,800 2,040 Climbing Cleveland Center
07:23PM 42.0442 -83.2200 207° Southwest 311 358 14,100 2,220 Climbing Cleveland Center
07:24PM 41.9619 -83.2694 204° Southwest 328 377 16,300 1,800 Climbing Cleveland Center
07:25PM 41.8881 -83.3083 201° Southwest 323 372 17,800 1,680 Climbing Cleveland Center
07:26PM 41.7994 -83.3436 197° South 323 372 19,700 1,380 Climbing Cleveland Center
07:27PM 41.7069 -83.3758 195° South 336 387 20,600 780 Climbing Cleveland Center
07:28PM 41.6042 -83.4017 191° South 357 411 21,300 900 Climbing Cleveland Center
07:29PM 41.4986 -83.4528 200° South 386 444 22,400 1,320 Climbing Cleveland Center
07:30PM 41.3931 -83.5061 201° Southwest 405 466 24,000 1,320 Climbing Cleveland Center
07:31PM 41.2853 -83.5594 200° South 415 478 25,100 1,020 Climbing Cleveland Center
07:33PM 41.0550 -83.6719 200° South 447 514 27,200 1,080 Climbing Indianapolis Center
07:34PM 40.9183 -83.7394 200° South 462 532 28,500 1,080 Climbing Indianapolis Center
07:35PM 40.7936 -83.7972 199° South 470 541 29,500 960 Climbing Indianapolis Center
07:36PM 40.6647 -83.8494 197° South 483 556 30,500 720 Climbing Indianapolis Center
07:37PM 40.5500 -83.9333 209° Southwest 471 542 31,000 240 Climbing Indianapolis Center
07:38PM 40.4372 -84.0208 211° Southwest 470 541 31,000  Level Indianapolis Center
07:39PM 40.3250 -84.1022 209° Southwest 461 531 31,000  Level Indianapolis Center
07:40PM 40.2069 -84.1772 206° Southwest 471 542 31,000  Level Indianapolis Center
07:41PM 40.0650 -84.1642 176° South 511 588 31,000  Level Indianapolis Center
07:42PM 39.8986 -84.1275 170° South 519 597 31,000  Level Indianapolis Center
07:43PM 39.7567 -84.0964 170° South 517 595 31,000  Level Indianapolis Center
07:44PM 39.6144 -84.0661 171° South 517 595 31,000  Level Indianapolis Center
07:45PM 39.4728 -84.0364 171° South 514 592 31,000  Level Indianapolis Center
07:46PM 39.3317 -84.0056 170° South 512 589 31,000  Level Indianapolis Center
07:47PM 39.1878 -83.9761 171° South 520 598 31,000 -60 Level Indianapolis Center
07:48PM 39.0433 -83.9442 170° South 522 601 30,900  Descending Indianapolis Center
07:49PM 38.8761 -83.9083 171° South 518 596 31,000  Climbing Indianapolis Center
07:50PM 38.7336 -83.8792 171° South 515 593 31,000  Level Indianapolis Center
07:51PM 38.6044 -83.8517 171° South 519 597 31,000  Level Indianapolis Center
07:52PM 38.4389 -83.8169 171° South 516 594 31,000  Level Indianapolis Center
07:53PM 38.2961 -83.7886 171° South 518 596 31,000  Level Indianapolis Center
07:54PM 38.1544 -83.7592 171° South 515 593 31,000  Level Indianapolis Center
07:55PM 38.0117 -83.7311 171° South 518 596 31,000  Level Indianapolis Center
07:56PM 37.8706 -83.7017 171° South 517 595 31,000  Level Indianapolis Center
07:57PM 37.7314 -83.6714 170° South 508 585 31,000  Level Indianapolis Center
07:58PM 37.5681 -83.6386 171° South 509 586 31,000  Level Indianapolis Center
07:59PM 37.4278 -83.6103 171° South 511 588 31,000  Level Indianapolis Center
08:00PM 37.2869 -83.5828 171° South 513 590 31,000  Level Indianapolis Center
08:01PM 37.1453 -83.5539 171° South 516 594 31,000  Level Indianapolis Center
08:02PM 37.0031 -83.5264 171° South 518 596 31,000  Level Indianapolis Center
08:04PM 36.8611 -83.4919 169° South 521 600 31,000  Level Indianapolis Center
08:05PM 36.6978 -83.4450 167° South 520 598 31,000  Level Indianapolis Center
08:06PM 36.5597 -83.3933 163° South 520 598 31,000  Level Indianapolis Center
08:07PM 36.4217 -83.3422 163° South 519 597 31,000  Level Indianapolis Center
08:08PM 36.2839 -83.2914 163° South 517 595 31,000  Level Indianapolis Center
08:09PM 36.1467 -83.2342 161° South 519 597 31,000  Level Indianapolis Center
08:10PM 35.9919 -83.1594 159° South 514 592 31,000  Level Indianapolis Center
08:11PM 35.8578 -83.0969 159° South 516 594 31,000  Level Indianapolis Center
08:12PM 35.7231 -83.0328 159° South 518 596 31,000  Level Indianapolis Center
08:13PM 35.5303 -82.9950 171° South 502 578 31,000  Level Atlanta Center
08:14PM 35.3903 -82.9814 175° South 507 583 31,000  Level Atlanta Center
08:15PM 35.2503 -82.9631 174° South 507 583 31,000  Level Atlanta Center
08:16PM 35.1147 -82.9444 174° South 501 577 31,000  Level Atlanta Center
08:17PM 34.9725 -82.9286 175° South 501 577 31,000  Level Atlanta Center
08:18PM 34.8283 -82.9078 173° South 506 582 31,000  Level Atlanta Center
08:19PM 34.6947 -82.8919 174° South 501 577 31,000  Level Atlanta Center
08:20PM 34.5692 -82.8758 174° South 501 577 31,000  Level Atlanta Center
08:21PM 34.4208 -82.8578 174° South 496 571 31,000  Level Atlanta Center
08:22PM 34.2769 -82.8447 176° South 502 578 31,000  Level Atlanta Center
08:23PM 34.1411 -82.8367 177° South 502 578 31,000  Level Atlanta Center
08:24PM 34.0033 -82.8261 176° South 497 572 31,000  Level Atlanta Center
08:25PM 33.8653 -82.8156 176° South 497 572 31,000  Level Atlanta Center
08:26PM 33.7253 -82.8025 176° South 503 579 31,000  Level Atlanta Center
08:27PM 33.5875 -82.7944 177° South 497 572 31,000 -300 Level Atlanta Center
08:28PM 33.4497 -82.7839 176° South 497 572 30,500 -540 Descending Atlanta Center
08:29PM 33.3306 -82.7733 176° South 497 572 30,000 -300 Descending Atlanta Center
08:30PM 33.1781 -82.7631 177° South 497 572 30,000  Level Atlanta Center
08:31PM 33.0422 -82.7503 175° South 497 572 30,000  Level Atlanta Center
08:32PM 32.9022 -82.7375 176° South 497 572 30,000  Level Atlanta Center
08:33PM 32.7667 -82.7344 179° South 497 572 30,000  Level Atlanta Center
08:34PM 32.6308 -82.7144 173° South 497 572 30,000  Level Atlanta Center
08:36PM 32.3875 -82.6122 160° South 486 559 30,000  Level Jacksonville Center
08:37PM 32.2600 -82.5633 162° South 486 559 30,000  Level Jacksonville Center
08:38PM 32.1244 -82.5589 178° South 485 558 30,000  Level Jacksonville Center
08:39PM 32.0053 -82.5544 178° South 485 558 30,000  Level Jacksonville Center
08:40PM 31.8717 -82.5550 180° South 480 552 30,000  Level Jacksonville Center
08:41PM 31.7403 -82.5581 181° South 475 547 30,000  Level Jacksonville Center
08:43PM 31.5558 -82.5734 184° South  Level FlightAware Approximate
08:44PM 31.3331 -82.5739 184° South 475 547 30,000  Level Jacksonville Center
08:45PM 31.1994 -82.5867 185° South 480 552 30,000  Level Jacksonville Center
08:46PM 31.0658 -82.6064 187° South 480 552 30,000  Level Jacksonville Center
08:47PM 30.9386 -82.6214 186° South 480 552 30,000  Level Jacksonville Center
08:48PM 30.8111 -82.6386 187° South 475 547 30,000  Level Jacksonville Center
08:49PM 30.6839 -82.6533 186° South 475 547 30,000  Level Jacksonville Center
08:50PM 30.5775 -82.6658 186° South 475 547 30,000 -180 Level Jacksonville Center
08:51PM 30.4375 -82.6781 184° South 470 541 29,700 -600 Descending Jacksonville Center
08:52PM 30.3039 -82.6881 184° South 475 547 28,800 -960 Descending Jacksonville Center
08:53PM 30.1703 -82.6692 173° South 480 552 27,800 -960 Descending Jacksonville Center
08:54PM 30.0364 -82.6047 157° South 469 540 26,900 -420 Descending Jacksonville Center
08:55PM 29.9383 -82.5450 152° Southeast 462 532 27,000  Climbing Jacksonville Center
08:56PM 29.8253 -82.4831 155° Southeast 451 519 26,900 -60 Descending Jacksonville Center
08:57PM 29.7103 -82.4239 156° South 451 519 26,900 -60 Level Jacksonville Center
08:58PM 29.5953 -82.3647 156° South 451 519 26,800 -1,080 Descending Jacksonville Center
08:59PM 29.4700 -82.3439 172° South 444 511 24,800 -2,100 Descending Jacksonville Center
09:00PM 29.3508 -82.3303 174° South 444 511 22,700 -2,160 Descending Jacksonville Center
09:01PM 29.2381 -82.3167 174° South 438 504 20,500 -2,280 Descending Jacksonville Center
09:02PM 29.1275 -82.3031 174° South 414 476 18,200 -2,280 Descending Jacksonville Center
09:03PM 29.0208 -82.2919 175° South 404 465 16,000 -1,980 Descending Jacksonville Center
09:05PM 28.8333 -82.2667 173° South 372 428 13,000 -1,140 Descending Tampa TRACON
09:06PM 28.7500 -82.2667 180° South 329 379 13,000 -60 Level Tampa TRACON
09:07PM 28.6500 -82.2500 172° South 318 366 12,900 -480 Descending Tampa TRACON
09:08PM 28.5667 -82.2667 190° South 314 361 12,100 -900 Descending Tampa TRACON
09:09PM 28.4833 -82.3167 208° Southwest 303 349 11,100 -1,020 Descending Tampa TRACON
09:10PM 28.4667 -82.4000 257° West 293 337 10,100 -1,320 Descending Tampa TRACON
09:11PM 28.4667 -82.5000 270° West 287 330 8,500 -1,500 Descending Tampa TRACON
09:12PM 28.4333 -82.5833 246° West 278 320 7,200 -1,260 Descending Tampa TRACON
09:13PM 28.4167 -82.6500 254° West 262 302 6,000 -1,200 Descending Tampa TRACON
09:14PM 28.3667 -82.7167 230° Southwest 260 299 4,800 -1,020 Descending Tampa TRACON
09:15PM 28.3000 -82.7667 213° Southwest 249 287 4,000 -540 Descending Tampa TRACON
09:16PM 28.2500 -82.7500 164° South 233 268 3,800 -480 Descending Tampa TRACON
09:17PM 28.1833 -82.7333 168° South 227 261 3,200 -420 Descending Tampa TRACON
09:18PM 28.1167 -82.7333 180° South 222 255 3,000 -300 Descending Tampa TRACON
09:19PM 28.0667 -82.7167 164° South 214 246 2,600 -720 Descending Tampa TRACON
09:20PM 28.0000 -82.7000 168° South 178 205 1,600 -900 Descending Tampa TRACON
09:21PM 27.9667 -82.7000 180° South 139 160 900 -720 Descending Tampa TRACON
09:22PM 27.9333 -82.7000 180° South 134 154 300 -600 Descending Tampa TRACON
09:24PM 27.9100 -82.6874 155° Southeast  Level Estimated
09:31PM 27.9100 -82.6874 90° East  Level Estimated